Weather History for Three Rivers, MI

Change the Weather History Date:

Tuesday, October 1, 2013

  Actual Average Record
Temperature  
Mean Temperature 64 °F -  
Max Temperature 73 °F 69 °F 88 °F (1971)
Min Temperature 54 °F 44 °F 29 °F (1956)
Degree Days  
Heating Degree Days 2    
Growing Degree Days 14 (Base 50)    
Moisture  
Dew Point 59 °F    
Average Humidity 86    
Maximum Humidity 98    
Minimum Humidity 66    
Precipitation  
Precipitation 0.00 in - - ()
Sea Level Pressure  
Sea Level Pressure 29.98 in    
Wind  
Wind Speed 6 mph (SSW)    
Max Wind Speed 15 mph    
Max Gust Speed 21 mph    
Visibility 6 miles    
Events Fog    
Averages and records for this station are not official NWS values.
T = Trace of Precipitation, MM = Missing Value Source: NWS Daily Summary

Daily Weather History Graph

Daily Weather History Graph

Search for Another Location

Airport:

Trip Planner

Search our weather history database for the weather conditions in past years. The results will help you decide how hot, cold, wet, or windy it might be!

Date:

Astronomy

Oct. 01, 2013 Rise Set
Actual Time 7:39 AM EDT 7:23 PM EDT
Civil Twilight 7:11 AM EDT 7:51 PM EDT
Nautical Twilight 6:39 AM EDT 8:23 PM EDT
Astronomical Twilight 6:06 AM EDT 8:56 PM EDT
Moon 4:10 AM EDT (10/1) 5:29 PM EDT (10/1)
Length of Visible Light 12h 39m
Length of Day
11h 43m
Waning Crescent, 12% of the Moon is Illuminated
Oct 1
Waning Crescent
Oct 4
New
Oct 11
First Quarter
Oct 18
Full
Oct 26
Last Quarter

Hourly Weather History & Observations

Time (EDT) Temp. Dew Point Humidity Pressure Visibility Wind Dir Wind Speed Gust Speed Precip Events Conditions
12:15 AM 54.5 °F 52.5 °F 93% 29.95 in 4.0 mi Calm Calm - N/A   Clear
12:34 AM 55.4 °F 53.1 °F 92% 29.96 in 5.0 mi South 3.5 mph - N/A   Clear
12:55 AM 54.5 °F 52.2 °F 92% 29.95 in 7.0 mi South 4.6 mph - N/A   Clear
1:15 AM 55.4 °F 52.7 °F 91% 29.96 in 7.0 mi South 5.8 mph - N/A   Clear
1:34 AM 55.6 °F 52.7 °F 90% 29.96 in 7.0 mi South 5.8 mph - N/A   Clear
1:55 AM 56.3 °F 53.1 °F 89% 29.96 in 7.0 mi SSW 4.6 mph - N/A   Clear
2:15 AM 55.8 °F 52.7 °F 89% 29.96 in 7.0 mi South 4.6 mph - N/A   Clear
2:34 AM 55.4 °F 52.3 °F 89% 29.97 in 7.0 mi SSW 4.6 mph - N/A   Clear
2:55 AM 54.9 °F 52.0 °F 90% 29.97 in 7.0 mi South 4.6 mph - N/A   Clear
3:14 AM 54.9 °F 52.3 °F 91% 29.97 in 7.0 mi SSW 4.6 mph - N/A   Clear
3:35 AM 56.3 °F 53.8 °F 91% 29.97 in 7.0 mi Calm Calm - N/A   Clear
3:55 AM 56.3 °F 53.6 °F 91% 29.98 in 5.0 mi Calm Calm - N/A   Clear
4:14 AM 54.3 °F 52.0 °F 92% 29.98 in 4.0 mi Calm Calm - N/A   Clear
4:35 AM 54.0 °F 52.2 °F 94% 29.98 in 3.0 mi Calm Calm - N/A   Clear
4:55 AM 55.4 °F 53.8 °F 94% 29.98 in 2.0 mi South 3.5 mph - N/A   Clear
5:14 AM 55.8 °F 54.5 °F 96% 29.98 in 2.0 mi Calm Calm - N/A   Overcast
5:35 AM 57.7 °F 56.5 °F 96% 29.99 in 2.5 mi SSW 4.6 mph - N/A   Overcast
5:54 AM 59.0 °F 58.1 °F 97% 29.99 in 1.5 mi SSW 5.8 mph - N/A   Overcast
6:15 AM 59.9 °F 58.6 °F 96% 29.99 in 0.5 mi SSW 5.8 mph - N/A Fog Fog
6:35 AM 60.3 °F 59.4 °F 97% 29.99 in 0.5 mi SSW 6.9 mph - N/A Fog Fog
6:54 AM 60.8 °F 59.9 °F 97% 29.99 in 0.5 mi SSW 6.9 mph - N/A Fog Fog
7:15 AM 61.3 °F 60.8 °F 98% 30.00 in 0.8 mi SSW 8.1 mph - N/A   Overcast
7:35 AM 61.7 °F 61.0 °F 97% 30.00 in 1.5 mi SW 8.1 mph - N/A   Overcast
7:54 AM 62.1 °F 61.3 °F 97% 30.01 in 1.5 mi SSW 6.9 mph - N/A   Overcast
8:15 AM 62.2 °F 61.7 °F 98% 30.01 in 1.5 mi SSW 6.9 mph - N/A   Overcast
8:35 AM 62.6 °F 61.9 °F 97% 30.01 in 1.8 mi SSW 6.9 mph - N/A   Overcast
8:54 AM 62.8 °F 62.1 °F 97% 30.01 in 2.0 mi SSW 5.8 mph - N/A   Overcast
9:15 AM 63.1 °F 62.1 °F 96% 30.02 in 3.0 mi SSW 8.1 mph - N/A   Overcast
9:34 AM 63.5 °F 62.2 °F 96% 30.01 in 3.0 mi SSW 10.4 mph - N/A   Overcast
9:55 AM 63.7 °F 61.9 °F 94% 30.02 in 4.0 mi SSW 10.4 mph - N/A   Overcast
10:14 AM 64.0 °F 61.9 °F 93% 30.02 in 4.0 mi SSW 10.4 mph - N/A   Overcast
10:35 AM 64.4 °F 61.7 °F 91% 30.02 in 4.0 mi SW 8.1 mph - N/A   Overcast
10:55 AM 64.6 °F 61.7 °F 90% 30.02 in 4.0 mi SSW 10.4 mph - N/A   Overcast
11:14 AM 64.8 °F 61.7 °F 90% 30.02 in 4.0 mi SW 11.5 mph - N/A   Overcast
11:35 AM 65.5 °F 61.7 °F 88% 30.02 in 4.0 mi SW 10.4 mph - N/A   Overcast
11:55 AM 65.7 °F 61.7 °F 87% 30.02 in 5.0 mi SW 8.1 mph - N/A   Overcast
12:14 PM 66.2 °F 61.7 °F 85% 30.02 in 5.0 mi SW 9.2 mph - N/A   Overcast
12:35 PM 67.1 °F 61.3 °F 82% 30.02 in 7.0 mi SW 10.4 mph - N/A   Overcast
12:55 PM 67.5 °F 61.7 °F 82% 30.01 in 7.0 mi SSW 10.4 mph - N/A   Overcast
1:14 PM 67.3 °F 61.5 °F 82% 30.01 in 7.0 mi SSW 10.4 mph - N/A   Overcast
1:35 PM 68.4 °F 61.3 °F 78% 30.01 in 7.0 mi SW 9.2 mph 18.4 mph N/A   Overcast
1:54 PM 68.2 °F 61.2 °F 78% 30.00 in 7.0 mi SW 11.5 mph 20.7 mph N/A   Overcast
2:15 PM 68.2 °F 61.2 °F 78% 30.00 in 10.0 mi SW 10.4 mph 17.3 mph N/A   Overcast
2:35 PM 68.9 °F 61.5 °F 77% 29.99 in 10.0 mi SW 8.1 mph - N/A   Overcast
2:55 PM 68.9 °F 61.3 °F 77% 29.99 in 10.0 mi SSW 13.8 mph 18.4 mph N/A   Overcast
3:15 PM 68.5 °F 61.2 °F 77% 29.98 in 10.0 mi SSW 13.8 mph - N/A   Overcast
3:34 PM 68.9 °F 61.3 °F 77% 29.98 in 10.0 mi SSW 12.7 mph - N/A   Overcast
3:55 PM 70.0 °F 61.5 °F 74% 29.97 in 10.0 mi SSW 12.7 mph 17.3 mph N/A   Overcast
4:15 PM 70.3 °F 61.5 °F 74% 29.97 in 10.0 mi South 12.7 mph 18.4 mph N/A   Overcast
4:35 PM 72.0 °F 61.5 °F 70% 29.96 in 10.0 mi South 15.0 mph - N/A   Mostly Cloudy
4:55 PM 72.3 °F 61.7 °F 69% 29.96 in 10.0 mi SSW 10.4 mph 16.1 mph N/A   Scattered Clouds
5:14 PM 72.0 °F 61.7 °F 70% 29.96 in 10.0 mi SSW 8.1 mph - N/A   Scattered Clouds
5:35 PM 72.1 °F 61.7 °F 70% 29.95 in 10.0 mi SSW 11.5 mph 17.3 mph N/A   Mostly Cloudy
5:55 PM 73.8 °F 61.9 °F 66% 29.95 in 10.0 mi South 12.7 mph - N/A   Mostly Cloudy
6:14 PM 73.0 °F 61.9 °F 68% 29.95 in 10.0 mi SSW 11.5 mph 16.1 mph N/A   Scattered Clouds
6:35 PM 72.7 °F 61.5 °F 68% 29.95 in 10.0 mi SSW 9.2 mph - N/A   Clear
6:55 PM 72.0 °F 61.3 °F 69% 29.95 in 10.0 mi SSW 10.4 mph - N/A   Clear
7:14 PM 70.7 °F 61.2 °F 72% 29.95 in 10.0 mi SSW 9.2 mph - N/A   Clear
7:35 PM 70.0 °F 61.2 °F 73% 29.95 in 10.0 mi SSW 9.2 mph - N/A   Clear
7:54 PM 69.1 °F 61.2 °F 76% 29.95 in 10.0 mi SSW 6.9 mph - N/A   Clear
8:15 PM 67.3 °F 60.8 °F 80% 29.96 in 10.0 mi SSW 5.8 mph - N/A   Clear
8:35 PM 66.6 °F 60.8 °F 82% 29.97 in 10.0 mi SSW 6.9 mph - N/A   Clear
8:54 PM 65.8 °F 60.6 °F 83% 29.97 in 10.0 mi SSW 6.9 mph - N/A   Clear
9:15 PM 65.7 °F 60.6 °F 84% 29.97 in 10.0 mi SSW 5.8 mph - N/A   Clear
9:35 PM 64.9 °F 60.4 °F 85% 29.97 in 10.0 mi SSW 5.8 mph - N/A   Clear
9:54 PM 64.6 °F 60.3 °F 86% 29.98 in 10.0 mi SSW 5.8 mph - N/A   Clear
10:15 PM 63.7 °F 59.7 °F 87% 29.97 in 7.0 mi SSW 5.8 mph - N/A   Clear
10:35 PM 63.0 °F 59.7 °F 89% 29.97 in 7.0 mi SSW 4.6 mph - N/A   Clear
10:55 PM 62.6 °F 59.5 °F 90% 29.98 in 7.0 mi South 3.5 mph - N/A   Clear
11:15 PM 61.9 °F 59.2 °F 91% 29.98 in 7.0 mi SSW 3.5 mph - N/A   Clear
11:34 PM 61.3 °F 58.8 °F 91% 29.98 in 7.0 mi SSW 3.5 mph - N/A   Clear
11:55 PM 60.8 °F 58.5 °F 92% 29.98 in 5.0 mi SSW 4.6 mph - N/A   Clear